sensor_id;sensor_type;location;lat;lon;timestamp;temperature;humidity
40249;DHT22;25969;49.970;11.062;2023-07-31T04:07:48;16.30;90.60
40249;DHT22;25969;49.970;11.062;2023-07-31T04:17:49;16.30;90.70
40249;DHT22;25969;49.970;11.062;2023-07-31T04:27:49;16.30;91.00
40249;DHT22;25969;49.970;11.062;2023-07-31T04:37:50;16.40;90.80
40249;DHT22;25969;49.970;11.062;2023-07-31T04:47:51;16.20;91.30
40249;DHT22;25969;49.970;11.062;2023-07-31T04:57:51;16.30;91.00
40249;DHT22;25969;49.970;11.062;2023-07-31T05:07:52;16.20;91.10
40249;DHT22;25969;49.970;11.062;2023-07-31T05:17:53;16.20;91.60
40249;DHT22;25969;49.970;11.062;2023-07-31T05:27:54;16.30;91.60
40249;DHT22;25969;49.970;11.062;2023-07-31T05:37:54;15.90;94.00
40249;DHT22;25969;49.970;11.062;2023-07-31T05:47:55;15.90;93.80
40249;DHT22;25969;49.970;11.062;2023-07-31T05:57:56;16.10;93.40
40249;DHT22;25969;49.970;11.062;2023-07-31T06:07:57;16.30;93.40
40249;DHT22;25969;49.970;11.062;2023-07-31T06:17:57;16.60;91.70
40249;DHT22;25969;49.970;11.062;2023-07-31T06:27:59;16.80;91.50
40249;DHT22;25969;49.970;11.062;2023-07-31T06:38:00;16.70;91.50
40249;DHT22;25969;49.970;11.062;2023-07-31T06:48:02;16.80;91.60
40249;DHT22;25969;49.970;11.062;2023-07-31T06:58:05;16.80;91.80
40249;DHT22;25969;49.970;11.062;2023-07-31T07:08:06;16.90;91.60
40249;DHT22;25969;49.970;11.062;2023-07-31T07:18:06;17.20;90.70
40249;DHT22;25969;49.970;11.062;2023-07-31T07:28:07;17.30;90.30
40249;DHT22;25969;49.970;11.062;2023-07-31T07:38:08;17.40;90.80
40249;DHT22;25969;49.970;11.062;2023-07-31T07:48:09;18.10;89.60
40249;DHT22;25969;49.970;11.062;2023-07-31T07:58:09;19.30;85.20
40249;DHT22;25969;49.970;11.062;2023-07-31T08:08:14;19.90;83.40
40249;DHT22;25969;49.970;11.062;2023-07-31T08:18:15;20.00;82.90
40249;DHT22;25969;49.970;11.062;2023-07-31T08:28:17;19.90;81.40
40249;DHT22;25969;49.970;11.062;2023-07-31T08:38:18;19.40;84.60
40249;DHT22;25969;49.970;11.062;2023-07-31T08:48:22;19.50;83.50
40249;DHT22;25969;49.970;11.062;2023-07-31T08:58:24;20.20;81.00
40249;DHT22;25969;49.970;11.062;2023-07-31T09:08:27;21.70;76.80
40249;DHT22;25969;49.970;11.062;2023-07-31T09:18:30;20.80;78.60
40249;DHT22;25969;49.970;11.062;2023-07-31T09:28:31;20.00;82.90
40249;DHT22;25969;49.970;11.062;2023-07-31T09:38:32;19.90;83.40
40249;DHT22;25969;49.970;11.062;2023-07-31T09:48:38;20.10;83.20
40249;DHT22;25969;49.970;11.062;2023-07-31T09:58:39;20.10;80.90
40249;DHT22;25969;49.970;11.062;2023-07-31T10:08:41;19.80;82.60
40249;DHT22;25969;49.970;11.062;2023-07-31T10:18:42;22.20;76.50
40249;DHT22;25969;49.970;11.062;2023-07-31T10:28:45;22.60;71.00
40249;DHT22;25969;49.970;11.062;2023-07-31T10:38:50;23.20;70.10
40249;DHT22;25969;49.970;11.062;2023-07-31T10:49:03;23.40;69.00
40249;DHT22;25969;49.970;11.062;2023-07-31T10:59:03;23.10;67.60
40249;DHT22;25969;49.970;11.062;2023-07-31T11:09:04;23.80;66.50
40249;DHT22;25969;49.970;11.062;2023-07-31T11:19:08;22.10;70.00
40249;DHT22;25969;49.970;11.062;2023-07-31T11:29:13;21.50;74.60
40249;DHT22;25969;49.970;11.062;2023-07-31T11:39:13;22.70;70.50
40249;DHT22;25969;49.970;11.062;2023-07-31T11:49:15;22.00;71.70
40249;DHT22;25969;49.970;11.062;2023-07-31T11:59:16;21.10;74.50
40249;DHT22;25969;49.970;11.062;2023-07-31T12:09:16;20.60;75.10
40249;DHT22;25969;49.970;11.062;2023-07-31T12:19:19;20.40;79.10
40249;DHT22;25969;49.970;11.062;2023-07-31T12:29:19;20.00;85.00
40249;DHT22;25969;49.970;11.062;2023-07-31T12:39:20;20.10;87.90
40249;DHT22;25969;49.970;11.062;2023-07-31T12:49:21;20.30;89.80
40249;DHT22;25969;49.970;11.062;2023-07-31T12:59:22;21.40;88.10
40249;DHT22;25969;49.970;11.062;2023-07-31T13:09:22;22.00;89.10
40249;DHT22;25969;49.970;11.062;2023-07-31T13:19:23;22.10;84.60
40249;DHT22;25969;49.970;11.062;2023-07-31T13:29:24;21.50;87.70
40249;DHT22;25969;49.970;11.062;2023-07-31T13:39:25;21.70;82.20
40249;DHT22;25969;49.970;11.062;2023-07-31T13:49:25;21.90;80.30
40249;DHT22;25969;49.970;11.062;2023-07-31T13:59:26;22.00;74.40
40249;DHT22;25969;49.970;11.062;2023-07-31T14:09:27;22.80;72.40
40249;DHT22;25969;49.970;11.062;2023-07-31T14:19:28;21.90;73.40
40249;DHT22;25969;49.970;11.062;2023-07-31T14:29:29;21.80;74.40
40249;DHT22;25969;49.970;11.062;2023-07-31T14:39:30;21.60;75.40
40249;DHT22;25969;49.970;11.062;2023-07-31T14:49:31;21.10;76.20
40249;DHT22;25969;49.970;11.062;2023-07-31T14:59:32;20.70;77.10
40249;DHT22;25969;49.970;11.062;2023-07-31T15:09:32;20.70;78.50
40249;DHT22;25969;49.970;11.062;2023-07-31T15:19:33;20.90;76.90
40249;DHT22;25969;49.970;11.062;2023-07-31T15:29:35;21.30;74.20
40249;DHT22;25969;49.970;11.062;2023-07-31T15:39:37;20.90;74.20
40249;DHT22;25969;49.970;11.062;2023-07-31T15:49:38;21.20;74.00
40249;DHT22;25969;49.970;11.062;2023-07-31T15:59:38;21.80;72.50
40249;DHT22;25969;49.970;11.062;2023-07-31T16:09:39;21.10;72.90
40249;DHT22;25969;49.970;11.062;2023-07-31T16:19:40;20.80;73.50
40249;DHT22;25969;49.970;11.062;2023-07-31T16:29:40;20.80;75.20
40249;DHT22;25969;49.970;11.062;2023-07-31T16:39:41;20.90;74.20
40249;DHT22;25969;49.970;11.062;2023-07-31T16:49:45;20.70;75.00
40249;DHT22;25969;49.970;11.062;2023-07-31T16:59:46;20.50;78.20
40249;DHT22;25969;49.970;11.062;2023-07-31T17:09:47;20.50;78.70
40249;DHT22;25969;49.970;11.062;2023-07-31T17:19:47;20.30;78.80
40249;DHT22;25969;49.970;11.062;2023-07-31T17:29:48;20.10;79.80
40249;DHT22;25969;49.970;11.062;2023-07-31T17:39:49;20.10;79.70
40249;DHT22;25969;49.970;11.062;2023-07-31T17:49:50;20.10;80.40
40249;DHT22;25969;49.970;11.062;2023-07-31T17:59:51;20.00;80.30
40249;DHT22;25969;49.970;11.062;2023-07-31T18:09:52;20.00;80.60
40249;DHT22;25969;49.970;11.062;2023-07-31T18:19:53;20.00;81.10
40249;DHT22;25969;49.970;11.062;2023-07-31T18:29:54;19.90;82.00
40249;DHT22;25969;49.970;11.062;2023-07-31T18:39:54;19.80;83.20
40249;DHT22;25969;49.970;11.062;2023-07-31T18:49:55;19.80;82.50
40249;DHT22;25969;49.970;11.062;2023-07-31T18:59:56;19.80;82.30
40249;DHT22;25969;49.970;11.062;2023-07-31T19:09:57;19.70;82.60
40249;DHT22;25969;49.970;11.062;2023-07-31T19:19:59;19.50;83.80
40249;DHT22;25969;49.970;11.062;2023-07-31T19:30:00;19.30;85.80
40249;DHT22;25969;49.970;11.062;2023-07-31T19:40:01;19.30;86.60
40249;DHT22;25969;49.970;11.062;2023-07-31T19:50:02;19.10;88.30
40249;DHT22;25969;49.970;11.062;2023-07-31T20:00:04;19.00;89.30
40249;DHT22;25969;49.970;11.062;2023-07-31T20:10:10;18.60;91.50
40249;DHT22;25969;49.970;11.062;2023-07-31T20:20:11;17.50;98.00
40249;DHT22;25969;49.970;11.062;2023-07-31T20:30:12;17.30;99.90
40249;DHT22;25969;49.970;11.062;2023-07-31T20:40:13;17.20;99.90
40249;DHT22;25969;49.970;11.062;2023-07-31T20:50:13;16.90;99.90
40249;DHT22;25969;49.970;11.062;2023-07-31T21:00:14;16.80;99.90
40249;DHT22;25969;49.970;11.062;2023-07-31T21:10:16;16.80;99.90
40249;DHT22;25969;49.970;11.062;2023-07-31T21:20:17;16.80;99.90
40249;DHT22;25969;49.970;11.062;2023-07-31T21:30:18;16.70;99.90
40249;DHT22;25969;49.970;11.062;2023-07-31T21:40:19;16.50;99.90
40249;DHT22;25969;49.970;11.062;2023-07-31T21:50:20;16.40;99.90
